createdAt,value
2018-04-17T00:00:21.628Z,28.68
2018-04-17T00:01:21.623Z,28.65
2018-04-17T00:02:21.571Z,28.63
2018-04-17T00:04:21.548Z,28.70
2018-04-17T00:05:21.503Z,28.60
2018-04-17T00:06:21.486Z,28.54
2018-04-17T00:07:21.477Z,28.63
2018-04-17T00:08:21.459Z,28.58
2018-04-17T00:09:21.442Z,28.63
2018-04-17T00:10:21.389Z,28.54
2018-04-17T00:11:21.375Z,28.62
2018-04-17T00:12:21.329Z,28.50
2018-04-17T00:13:21.299Z,28.60
2018-04-17T00:14:21.326Z,28.54
2018-04-17T00:15:21.287Z,28.51
2018-04-17T00:16:21.242Z,28.59
2018-04-17T00:17:21.222Z,28.50
2018-04-17T00:18:21.214Z,28.60
2018-04-17T00:19:21.176Z,28.58
2018-04-17T00:20:21.180Z,28.50
2018-04-17T00:21:21.116Z,28.50
2018-04-17T00:22:21.100Z,28.56
2018-04-17T00:23:21.111Z,28.54
2018-04-17T00:24:21.042Z,28.46
2018-04-17T00:25:21.031Z,28.54
2018-04-17T00:26:20.996Z,28.53
2018-04-17T00:27:20.984Z,28.53
2018-04-17T00:28:20.958Z,28.47
2018-04-17T00:29:20.936Z,28.53
2018-04-17T00:30:20.906Z,28.47
2018-04-17T00:31:20.896Z,28.51
2018-04-17T00:32:21.070Z,28.50
2018-04-17T00:33:20.862Z,28.53
2018-04-17T00:34:20.814Z,28.51
2018-04-17T00:35:20.843Z,28.35
2018-04-17T00:36:20.776Z,28.44
2018-04-17T00:37:20.747Z,28.53
2018-04-17T00:38:20.713Z,28.50
2018-04-17T00:39:20.681Z,28.43
2018-04-17T00:40:20.665Z,28.44
2018-04-17T00:41:20.634Z,28.47
2018-04-17T00:42:20.600Z,28.47
2018-04-17T00:43:20.594Z,28.46
2018-04-17T00:44:20.720Z,28.46
2018-04-17T00:45:20.565Z,28.43
2018-04-17T00:46:20.490Z,28.46
2018-04-17T00:47:20.483Z,28.48
2018-04-17T00:48:20.517Z,28.44
2018-04-17T00:49:20.523Z,28.47
2018-04-17T00:50:20.515Z,28.44
2018-04-17T00:51:20.393Z,28.50
2018-04-17T00:52:20.363Z,28.44
2018-04-17T00:53:20.356Z,28.50
2018-04-17T00:54:20.346Z,28.46
2018-04-17T00:55:20.286Z,28.46
2018-04-17T00:56:20.271Z,28.41
2018-04-17T00:57:20.245Z,28.53
2018-04-17T00:58:20.224Z,28.41
2018-04-17T00:59:20.178Z,28.40
2018-04-17T01:00:20.211Z,28.44
2018-04-17T01:01:20.133Z,28.38
2018-04-17T01:02:20.108Z,28.35
2018-04-17T01:03:20.117Z,28.43
2018-04-17T01:04:20.068Z,28.38
2018-04-17T01:05:20.060Z,28.38
2018-04-17T01:06:20.035Z,28.36
2018-04-17T01:07:19.998Z,28.43
2018-04-17T01:08:19.967Z,28.33
2018-04-17T01:09:19.983Z,28.35
2018-04-17T01:10:20.040Z,28.33
2018-04-17T01:11:19.909Z,28.36
2018-04-17T01:12:19.867Z,28.36
2018-04-17T01:13:19.861Z,28.26
2018-04-17T01:14:19.847Z,28.29
2018-04-17T01:15:19.799Z,28.28
2018-04-17T01:16:19.916Z,28.26
2018-04-17T01:17:19.772Z,28.36
2018-04-17T01:18:19.738Z,28.32
2018-04-17T01:19:19.755Z,28.23
2018-04-17T01:20:19.675Z,28.33
2018-04-17T01:21:19.644Z,28.31
2018-04-17T01:22:19.628Z,28.22
2018-04-17T01:23:19.616Z,28.29
2018-04-17T01:24:19.606Z,28.26
2018-04-17T01:25:19.580Z,28.31
2018-04-17T01:26:19.527Z,28.23
2018-04-17T01:27:19.510Z,28.25
2018-04-17T01:28:19.554Z,28.26
2018-04-17T01:29:19.471Z,28.19
2018-04-17T01:30:19.440Z,28.23
2018-04-17T01:31:19.412Z,28.21
2018-04-17T01:32:19.389Z,28.22
2018-04-17T01:33:19.373Z,28.23
2018-04-17T01:34:19.348Z,28.21
2018-04-17T01:35:19.315Z,28.21
2018-04-17T01:36:19.295Z,28.13
2018-04-17T01:37:19.269Z,28.16
2018-04-17T01:38:19.249Z,28.14
2018-04-17T01:39:19.237Z,28.13
2018-04-17T01:40:19.221Z,28.11
2018-04-17T01:41:19.181Z,28.17
2018-04-17T01:42:19.151Z,28.22
2018-04-17T01:43:19.123Z,28.14
2018-04-17T01:44:19.093Z,28.14
2018-04-17T01:45:19.056Z,28.13
2018-04-17T01:46:19.037Z,28.06
2018-04-17T01:47:19.032Z,28.06
2018-04-17T01:48:18.998Z,28.07
2018-04-17T01:49:18.972Z,28.10
2018-04-17T01:50:18.953Z,28.06
2018-04-17T01:51:18.941Z,28.09
2018-04-17T01:52:18.878Z,28.04
2018-04-17T01:54:18.846Z,28.04
2018-04-17T01:55:18.830Z,28.07
2018-04-17T01:56:18.822Z,28.10
2018-04-17T01:57:18.810Z,28.06
2018-04-17T01:58:18.741Z,28.10
2018-04-17T01:59:18.720Z,28.07
2018-04-17T02:00:18.696Z,27.95
2018-04-17T02:01:18.671Z,28.04
2018-04-17T02:02:18.645Z,27.96
2018-04-17T02:03:18.622Z,28.01
2018-04-17T02:04:18.618Z,27.99
2018-04-17T02:05:18.592Z,27.99
2018-04-17T02:06:18.549Z,28.04
2018-04-17T02:07:18.530Z,28.09
2018-04-17T02:08:18.514Z,27.91
2018-04-17T02:09:18.573Z,27.91
2018-04-17T02:10:18.462Z,27.94
2018-04-17T02:11:18.423Z,27.92
2018-04-17T02:12:18.412Z,27.95
2018-04-17T02:13:18.389Z,27.91
2018-04-17T02:14:18.359Z,27.95
2018-04-17T02:15:18.346Z,27.89
2018-04-17T02:16:18.314Z,27.98
2018-04-17T02:17:18.287Z,27.89
2018-04-17T02:18:18.267Z,27.95
2018-04-17T02:19:18.258Z,27.85
2018-04-17T02:20:18.212Z,27.94
2018-04-17T02:21:18.182Z,27.86
2018-04-17T02:22:18.173Z,27.86
2018-04-17T02:23:18.141Z,27.89
2018-04-17T02:24:18.113Z,27.86
2018-04-17T02:25:18.096Z,27.86
2018-04-17T02:26:18.081Z,27.86
2018-04-17T02:27:18.053Z,27.79
2018-04-17T02:28:18.031Z,27.94
2018-04-17T02:29:18.008Z,27.84
2018-04-17T02:30:18.115Z,27.84
2018-04-17T02:31:17.957Z,27.84
2018-04-17T02:32:17.920Z,27.86
2018-04-17T02:33:17.920Z,27.80
2018-04-17T02:34:17.852Z,27.77
2018-04-17T02:35:17.867Z,27.74
2018-04-17T02:36:18.508Z,27.82
2018-04-17T02:37:17.847Z,27.76
2018-04-17T02:38:17.770Z,27.79
2018-04-17T02:39:17.757Z,27.77
2018-04-17T02:40:17.709Z,27.76
2018-04-17T02:41:17.717Z,27.74
2018-04-17T02:42:17.673Z,27.79
2018-04-17T02:43:17.646Z,27.76
2018-04-17T02:44:17.612Z,27.77
2018-04-17T02:45:17.592Z,27.77
2018-04-17T02:46:17.565Z,27.73
2018-04-17T02:47:17.569Z,27.69
2018-04-17T02:48:17.515Z,27.71
2018-04-17T02:49:17.502Z,27.73
2018-04-17T02:50:17.821Z,27.70
2018-04-17T02:51:17.429Z,27.73
2018-04-17T02:52:17.406Z,27.69
2018-04-17T02:53:17.394Z,27.58
2018-04-17T02:54:17.371Z,27.62
2018-04-17T02:55:17.345Z,27.69
2018-04-17T02:56:17.312Z,27.71
2018-04-17T02:57:17.297Z,27.67
2018-04-17T02:58:17.248Z,27.62
2018-04-17T02:59:17.241Z,27.66
2018-04-17T03:00:17.209Z,27.69
2018-04-17T03:01:17.212Z,27.64
2018-04-17T03:02:17.181Z,27.62
2018-04-17T03:03:17.134Z,27.58
2018-04-17T03:04:17.137Z,27.59
2018-04-17T03:05:17.098Z,27.67
2018-04-17T03:06:17.077Z,27.64
2018-04-17T03:07:17.077Z,27.64
2018-04-17T03:08:17.027Z,27.64
2018-04-17T03:09:17.010Z,27.62
2018-04-17T03:10:16.971Z,27.61
2018-04-17T03:11:16.947Z,27.59
2018-04-17T03:12:16.912Z,27.58
2018-04-17T03:13:16.900Z,27.57
2018-04-17T03:14:16.857Z,27.69
2018-04-17T03:15:16.850Z,27.59
2018-04-17T03:16:16.875Z,27.57
2018-04-17T03:17:16.795Z,27.57
2018-04-17T03:18:16.773Z,27.59
2018-04-17T03:19:16.754Z,27.64
2018-04-17T03:20:16.710Z,27.57
2018-04-17T03:21:16.711Z,27.59
2018-04-17T03:22:16.660Z,27.59
2018-04-17T03:23:16.661Z,27.46
2018-04-17T03:24:16.777Z,27.59
2018-04-17T03:25:16.586Z,27.62
2018-04-17T03:26:16.596Z,27.66
2018-04-17T03:27:16.566Z,27.62
2018-04-17T03:28:16.507Z,27.59
2018-04-17T03:29:16.501Z,27.61
2018-04-17T03:30:16.482Z,27.64
2018-04-17T03:31:16.492Z,27.61
2018-04-17T03:32:16.411Z,27.59
2018-04-17T03:33:16.385Z,27.59
2018-04-17T03:34:16.368Z,27.54
2018-04-17T03:35:16.345Z,27.58
2018-04-17T03:36:16.356Z,27.58
2018-04-17T03:37:16.328Z,27.51
2018-04-17T03:38:16.280Z,27.53
2018-04-17T03:39:16.229Z,27.47
2018-04-17T03:40:16.229Z,27.54
2018-04-17T03:41:16.200Z,27.54
2018-04-17T03:42:16.185Z,27.57
2018-04-17T03:43:16.156Z,27.53
2018-04-17T03:44:16.135Z,27.54
2018-04-17T03:45:16.084Z,27.36
2018-04-17T03:46:16.078Z,27.46
2018-04-17T03:47:16.036Z,27.57
2018-04-17T03:48:16.028Z,27.43
2018-04-17T03:49:16.019Z,27.50
2018-04-17T03:50:16.015Z,27.47
2018-04-17T03:51:15.990Z,27.48
2018-04-17T03:52:15.910Z,27.43
2018-04-17T03:53:15.908Z,27.50
2018-04-17T03:54:15.869Z,27.47
2018-04-17T03:55:15.860Z,27.42
2018-04-17T03:56:15.812Z,27.48
2018-04-17T03:57:15.797Z,27.47
2018-04-17T03:58:15.763Z,27.47
2018-04-17T03:59:15.731Z,27.42
2018-04-17T04:00:15.732Z,27.48
2018-04-17T04:01:15.686Z,27.46
2018-04-17T04:02:15.676Z,27.47
2018-04-17T04:03:15.657Z,27.42
2018-04-17T04:04:15.620Z,27.43
2018-04-17T04:05:15.598Z,27.33
2018-04-17T04:06:15.563Z,27.41
2018-04-17T04:07:15.548Z,27.42
2018-04-17T04:08:15.527Z,27.43
2018-04-17T04:09:15.511Z,27.36
2018-04-17T04:10:15.459Z,27.38
2018-04-17T04:11:15.436Z,27.39
2018-04-17T04:12:15.428Z,27.39
2018-04-17T04:13:15.390Z,27.38
2018-04-17T04:14:15.376Z,27.39
2018-04-17T04:15:15.349Z,27.41
2018-04-17T04:16:15.366Z,27.36
2018-04-17T04:17:15.324Z,27.39
2018-04-17T04:18:15.266Z,27.35
2018-04-17T04:19:15.242Z,27.33
2018-04-17T04:20:15.224Z,27.39
2018-04-17T04:21:15.197Z,27.39
2018-04-17T04:22:15.162Z,27.38
2018-04-17T04:23:15.142Z,27.35
2018-04-17T04:24:15.127Z,27.35
2018-04-17T04:25:15.106Z,27.36
2018-04-17T04:26:15.060Z,27.31
2018-04-17T04:27:15.029Z,27.33
2018-04-17T04:28:15.024Z,27.38
2018-04-17T04:29:15.003Z,27.32
2018-04-17T04:30:14.976Z,27.38
2018-04-17T04:31:15.105Z,27.35
2018-04-17T04:32:14.927Z,27.35
2018-04-17T04:33:14.901Z,27.33
2018-04-17T04:34:14.862Z,27.35
2018-04-17T04:35:14.832Z,27.29
2018-04-17T04:36:14.810Z,27.28
2018-04-17T04:37:14.789Z,27.29
2018-04-17T04:38:14.763Z,27.24
2018-04-17T04:39:14.751Z,27.29
2018-04-17T04:40:14.716Z,27.26
2018-04-17T04:41:14.703Z,27.24
2018-04-17T04:42:14.671Z,27.26
2018-04-17T04:43:14.660Z,27.24
2018-04-17T04:44:14.602Z,27.26
2018-04-17T04:45:14.585Z,27.28
2018-04-17T04:46:14.581Z,27.28
2018-04-17T04:47:14.548Z,27.28
2018-04-17T04:48:14.828Z,27.23
2018-04-17T04:49:14.491Z,27.21
2018-04-17T04:50:14.454Z,27.26
2018-04-17T04:51:14.441Z,27.23
2018-04-17T04:52:14.408Z,27.23
2018-04-17T04:53:14.379Z,27.20
2018-04-17T04:54:14.376Z,27.29
2018-04-17T04:55:14.350Z,27.28
2018-04-17T04:56:14.328Z,27.20
2018-04-17T04:57:14.276Z,27.28
2018-04-17T04:58:14.271Z,27.26
2018-04-17T04:59:14.248Z,27.19
2018-04-17T05:00:14.218Z,27.20
2018-04-17T05:01:14.184Z,27.20
2018-04-17T05:02:14.159Z,27.26
2018-04-17T05:03:14.164Z,27.23
2018-04-17T05:04:14.131Z,27.20
2018-04-17T05:05:14.076Z,27.20
2018-04-17T05:06:14.082Z,27.23
2018-04-17T05:07:14.033Z,27.23
2018-04-17T05:08:14.018Z,27.17
2018-04-17T05:09:14.131Z,27.19
2018-04-17T05:10:13.990Z,27.21
2018-04-17T05:11:13.942Z,27.19
2018-04-17T05:12:13.921Z,27.19
2018-04-17T05:13:13.890Z,27.17
2018-04-17T05:14:13.860Z,27.20
2018-04-17T05:15:14.149Z,27.17
2018-04-17T05:16:13.804Z,27.19
2018-04-17T05:17:13.804Z,27.24
2018-04-17T05:18:13.762Z,27.16
2018-04-17T05:19:13.745Z,27.17
2018-04-17T05:20:13.730Z,27.23
2018-04-17T05:21:13.783Z,27.19
2018-04-17T05:22:13.674Z,27.16
2018-04-17T05:23:13.659Z,27.14
2018-04-17T05:24:13.621Z,27.14
2018-04-17T05:25:13.596Z,27.14
2018-04-17T05:26:13.567Z,27.13
2018-04-17T05:27:13.528Z,27.13
2018-04-17T05:28:13.518Z,27.16
2018-04-17T05:29:13.489Z,27.13
2018-04-17T05:30:13.473Z,27.13
2018-04-17T05:31:13.431Z,27.06
2018-04-17T05:32:13.411Z,27.11
2018-04-17T05:33:13.373Z,27.09
2018-04-17T05:34:13.394Z,27.09
2018-04-17T05:35:13.334Z,27.04
2018-04-17T05:36:13.295Z,27.09
2018-04-17T05:37:13.282Z,27.09
2018-04-17T05:38:13.244Z,27.01
2018-04-17T05:39:13.251Z,27.04
2018-04-17T05:40:13.247Z,27.01
2018-04-17T05:41:13.177Z,27.02
2018-04-17T05:42:13.164Z,26.98
2018-04-17T05:43:13.124Z,26.96
2018-04-17T05:44:13.114Z,26.94
2018-04-17T05:45:13.081Z,27.02
2018-04-17T05:46:13.054Z,27.01
2018-04-17T05:47:13.139Z,26.95
2018-04-17T05:48:12.996Z,26.95
2018-04-17T05:49:12.970Z,26.95
2018-04-17T05:50:12.986Z,27.02
2018-04-17T05:51:12.926Z,26.99
2018-04-17T05:52:12.898Z,26.99
2018-04-17T05:53:12.887Z,26.98
2018-04-17T05:54:12.844Z,26.98
2018-04-17T05:55:12.821Z,26.96
2018-04-17T05:56:12.820Z,26.92
2018-04-17T05:57:12.785Z,26.96
2018-04-17T05:58:12.769Z,26.94
2018-04-17T05:59:12.736Z,26.98
2018-04-17T06:00:12.715Z,26.95
2018-04-17T06:01:12.677Z,26.94
2018-04-17T06:02:12.650Z,26.91
2018-04-17T06:03:12.617Z,26.95
2018-04-17T06:04:12.720Z,26.92
2018-04-17T06:05:12.595Z,26.95
2018-04-17T06:06:12.554Z,26.89
2018-04-17T06:07:12.528Z,26.84
2018-04-17T06:08:12.510Z,26.92
2018-04-17T06:09:12.480Z,26.95
2018-04-17T06:10:12.454Z,26.84
2018-04-17T06:11:12.422Z,26.89
2018-04-17T06:12:12.400Z,26.81
2018-04-17T06:13:12.369Z,26.91
2018-04-17T06:14:12.358Z,26.87
2018-04-17T06:15:12.311Z,26.87
2018-04-17T06:16:12.309Z,26.80
2018-04-17T06:17:12.269Z,26.91
2018-04-17T06:18:12.229Z,26.86
2018-04-17T06:19:12.231Z,26.87
2018-04-17T06:20:12.199Z,26.81
2018-04-17T06:21:12.190Z,26.79
2018-04-17T06:22:12.159Z,26.89
2018-04-17T06:23:12.137Z,26.73
2018-04-17T06:24:12.081Z,26.80
2018-04-17T06:25:12.326Z,26.81
2018-04-17T06:26:12.054Z,26.86
2018-04-17T06:27:12.016Z,26.80
2018-04-17T06:28:12.003Z,26.86
2018-04-17T06:29:11.961Z,26.80
2018-04-17T06:30:11.938Z,26.84
2018-04-17T06:31:12.078Z,26.87
2018-04-17T06:32:11.890Z,26.86
2018-04-17T06:33:11.848Z,26.79
2018-04-17T06:34:11.848Z,26.79
2018-04-17T06:35:11.802Z,26.80
2018-04-17T06:36:11.798Z,26.86
2018-04-17T06:37:11.767Z,26.80
2018-04-17T06:38:11.730Z,26.74
2018-04-17T06:39:11.725Z,26.81
2018-04-17T06:40:11.693Z,26.73
2018-04-17T06:41:11.649Z,26.83
2018-04-17T06:42:11.898Z,26.84
2018-04-17T06:43:11.622Z,26.79
2018-04-17T06:44:11.577Z,26.80
2018-04-17T06:45:11.580Z,26.67
2018-04-17T06:46:11.540Z,26.73
2018-04-17T06:47:11.522Z,26.73
2018-04-17T06:48:11.502Z,26.67
2018-04-17T06:49:11.447Z,26.69
2018-04-17T06:50:11.448Z,26.69
2018-04-17T06:51:11.396Z,26.67
2018-04-17T06:52:11.377Z,26.67
2018-04-17T06:53:11.352Z,26.67
2018-04-17T06:54:11.337Z,26.62
2018-04-17T06:55:11.329Z,26.67
2018-04-17T06:56:11.276Z,26.73
2018-04-17T06:57:11.275Z,26.72
2018-04-17T06:58:11.250Z,26.72
2018-04-17T06:59:11.193Z,26.64
2018-04-17T07:00:11.173Z,26.72
2018-04-17T07:01:11.142Z,26.62
2018-04-17T07:02:11.141Z,26.62
2018-04-17T07:03:11.399Z,26.64
2018-04-17T07:04:11.098Z,26.61
2018-04-17T07:05:11.110Z,26.61
2018-04-17T07:06:11.028Z,26.64
2018-04-17T07:07:11.008Z,26.65
2018-04-17T07:08:10.983Z,26.61
2018-04-17T07:09:11.165Z,26.64
2018-04-17T07:10:10.933Z,26.65
2018-04-17T07:11:10.896Z,26.68
2018-04-17T07:12:10.868Z,26.62
2018-04-17T07:13:10.854Z,26.61
2018-04-17T07:14:10.820Z,26.57
2018-04-17T07:15:11.089Z,26.65
2018-04-17T07:16:10.763Z,26.65
2018-04-17T07:17:10.736Z,26.61
2018-04-17T07:18:10.718Z,26.62
2018-04-17T07:19:10.902Z,26.54
2018-04-17T07:20:10.684Z,26.64
2018-04-17T07:21:10.672Z,26.55
2018-04-17T07:22:10.661Z,26.61
2018-04-17T07:23:10.596Z,26.62
2018-04-17T07:24:10.573Z,26.62
2018-04-17T07:25:10.555Z,26.47
2018-04-17T07:26:10.508Z,26.57
2018-04-17T07:27:10.496Z,26.57
2018-04-17T07:28:10.491Z,26.55
2018-04-17T07:29:10.426Z,26.58
2018-04-17T07:30:10.441Z,26.57
2018-04-17T07:31:10.384Z,26.46
2018-04-17T07:32:10.373Z,26.49
2018-04-17T07:33:10.325Z,26.46
2018-04-17T07:34:10.322Z,26.49
2018-04-17T07:35:10.289Z,26.54
2018-04-17T07:36:10.258Z,26.52
2018-04-17T07:37:10.229Z,26.54
2018-04-17T07:38:10.197Z,26.52
2018-04-17T07:39:10.184Z,26.52
2018-04-17T07:40:10.163Z,26.50
2018-04-17T07:41:10.142Z,26.50
2018-04-17T07:42:10.103Z,26.50
2018-04-17T07:43:10.097Z,26.54
2018-04-17T07:44:10.058Z,26.49
2018-04-17T07:45:10.044Z,26.46
2018-04-17T07:46:10.108Z,26.50
2018-04-17T07:47:10.000Z,26.46
2018-04-17T07:48:09.963Z,26.43
2018-04-17T07:49:09.924Z,26.39
2018-04-17T07:50:09.916Z,26.37
2018-04-17T07:51:09.879Z,26.39
2018-04-17T07:52:09.869Z,26.39
2018-04-17T07:53:09.842Z,26.39
2018-04-17T07:54:09.816Z,26.37
2018-04-17T07:55:09.791Z,26.36
2018-04-17T07:56:09.759Z,26.40
2018-04-17T07:57:09.733Z,26.35
2018-04-17T07:58:09.719Z,26.40
2018-04-17T07:59:09.679Z,26.39
2018-04-17T08:00:09.657Z,26.43
2018-04-17T08:01:09.658Z,26.32
2018-04-17T08:02:09.648Z,26.39
2018-04-17T08:03:09.565Z,26.36
2018-04-17T08:04:09.547Z,26.31
2018-04-17T08:05:09.530Z,26.37
2018-04-17T08:06:09.506Z,26.39
2018-04-17T08:07:09.482Z,26.32
2018-04-17T08:08:09.453Z,26.31
2018-04-17T08:09:09.447Z,26.43
2018-04-17T08:10:09.402Z,26.42
2018-04-17T08:11:09.367Z,26.42
2018-04-17T08:12:09.361Z,26.37
2018-04-17T08:13:09.505Z,26.35
2018-04-17T08:14:09.403Z,26.40
2018-04-17T08:15:09.277Z,26.35
2018-04-17T08:16:09.260Z,26.36
2018-04-17T08:17:09.214Z,26.32
2018-04-17T08:18:09.180Z,26.35
2018-04-17T08:19:09.148Z,26.29
2018-04-17T08:20:09.158Z,26.35
2018-04-17T08:21:09.107Z,26.35
2018-04-17T08:22:09.104Z,26.39
2018-04-17T08:23:09.077Z,26.24
2018-04-17T08:24:09.296Z,26.32
2018-04-17T08:25:09.096Z,26.24
2018-04-17T08:26:09.004Z,26.22
2018-04-17T08:27:08.965Z,26.22
2018-04-17T08:28:08.933Z,26.25
2018-04-17T08:29:09.132Z,26.21
2018-04-17T08:30:08.882Z,26.22
2018-04-17T08:31:08.869Z,26.27
2018-04-17T08:32:08.842Z,26.25
2018-04-17T08:33:08.935Z,26.29
2018-04-17T08:34:08.915Z,26.27
2018-04-17T08:35:08.740Z,26.22
2018-04-17T08:36:08.787Z,26.22
2018-04-17T08:37:08.721Z,26.22
2018-04-17T08:38:08.686Z,26.22
2018-04-17T08:39:08.659Z,26.20
2018-04-17T08:40:08.624Z,26.12
2018-04-17T08:41:08.759Z,26.09
2018-04-17T08:42:08.600Z,26.15
2018-04-17T08:43:08.558Z,26.18
2018-04-17T08:44:08.513Z,26.15
2018-04-17T08:45:08.487Z,26.12
2018-04-17T08:46:08.465Z,26.22
2018-04-17T08:47:08.449Z,26.15
2018-04-17T08:48:08.416Z,26.17
2018-04-17T08:49:08.409Z,26.12
2018-04-17T08:50:08.376Z,26.09
2018-04-17T08:51:08.365Z,26.12
2018-04-17T08:52:08.304Z,26.17
2018-04-17T08:53:08.295Z,26.15
2018-04-17T08:54:08.268Z,26.17
2018-04-17T08:55:08.239Z,26.11
2018-04-17T08:56:08.217Z,26.09
2018-04-17T08:57:08.194Z,26.11
2018-04-17T08:58:08.170Z,26.09
2018-04-17T08:59:08.133Z,26.09
2018-04-17T09:00:08.110Z,26.20
2018-04-17T09:01:08.068Z,26.15
2018-04-17T09:02:08.208Z,26.11
2018-04-17T09:03:08.040Z,26.05
2018-04-17T09:04:08.006Z,26.01
2018-04-17T09:05:07.995Z,26.02
2018-04-17T09:06:07.940Z,26.01
2018-04-17T09:07:07.923Z,25.99
2018-04-17T09:08:08.056Z,25.99
2018-04-17T09:09:07.876Z,25.98
2018-04-17T09:10:07.860Z,25.98
2018-04-17T09:11:07.838Z,25.94
2018-04-17T09:12:07.806Z,25.99
2018-04-17T09:13:07.773Z,25.99
2018-04-17T09:14:07.755Z,25.91
2018-04-17T09:15:07.744Z,25.94
2018-04-17T09:16:07.708Z,25.99
2018-04-17T09:17:07.705Z,25.98
2018-04-17T09:18:07.659Z,25.99
2018-04-17T09:19:07.633Z,25.98
2018-04-17T09:20:07.601Z,25.94
2018-04-17T09:21:07.559Z,25.91
2018-04-17T09:22:07.547Z,25.97
2018-04-17T09:23:07.513Z,25.86
2018-04-17T09:24:07.503Z,25.93
2018-04-17T09:25:07.458Z,25.87
